Time;durP1;ratioP1;P1;durP2;ratioP2;P2;SDS_P1;SDS_P2;PMS_P1;PMS_P2;Temp;Humidity;BMP_temperature;BMP_pressure;BME280_temperature;BME280_humidity;BME280_pressure;Samples;Min_cycle;Max_cycle;Signal;HPM_P1;HPM_P2
2022/05/16 00:01:54;;;;;;;;;;;24.80;91.80;;;;;;5038890;28;19929;-56
2022/05/16 00:04:21;;;;;;;;;;;24.80;91.70;;;;;;5033933;28;19936;-56
2022/05/16 00:06:48;;;;;;;;;;;24.80;91.70;;;;;;5050329;28;20014;-57
2022/05/16 00:09:15;;;;;;;;;;;24.80;91.60;;;;;;5021693;28;19952;-55
2022/05/16 00:11:43;;;;;;;;;;;24.80;91.70;;;;;;5038982;28;19929;-56
2022/05/16 00:14:11;;;;;;;;;;;24.80;91.60;;;;;;5040977;28;19935;-57
2022/05/16 00:16:38;;;;;;;;;;;24.80;91.60;;;;;;5045802;28;19936;-57
2022/05/16 00:19:05;;;;;;;;;;;24.80;91.60;;;;;;5039985;28;19925;-58
2022/05/16 00:21:33;;;;;;;;;;;24.80;91.60;;;;;;5046455;28;19928;-55
2022/05/16 00:24:01;;;;;;;;;;;24.80;91.60;;;;;;5030522;28;19936;-57
2022/05/16 00:26:28;;;;;;;;;;;24.80;91.60;;;;;;5025897;28;20785;-58
2022/05/16 00:28:55;;;;;;;;;;;24.80;91.50;;;;;;5033585;28;19936;-56
2022/05/16 00:31:22;;;;;;;;;;;24.80;91.50;;;;;;5057678;28;19929;-57
2022/05/16 00:33:49;;;;;;;;;;;24.80;91.40;;;;;;5028782;28;19933;-57
2022/05/16 00:36:16;;;;;;;;;;;24.70;91.30;;;;;;5043069;28;19929;-58
2022/05/16 00:38:43;;;;;;;;;;;24.80;91.30;;;;;;5028923;28;20033;-59
2022/05/16 00:41:11;;;;;;;;;;;24.80;91.20;;;;;;5043230;28;20320;-57
2022/05/16 00:43:41;;;;;;;;;;;24.80;91.20;;;;;;5031950;28;19940;-56
2022/05/16 00:46:08;;;;;;;;;;;24.80;91.40;;;;;;5050008;28;19936;-56
2022/05/16 00:48:35;;;;;;;;;;;24.80;91.30;;;;;;5052015;28;20024;-57
2022/05/16 00:51:04;;;;;;;;;;;24.70;91.20;;;;;;5030582;28;20013;-58
2022/05/16 00:53:31;;;;;;;;;;;24.70;91.20;;;;;;5034625;28;19929;-57
2022/05/16 00:56:02;;;;;;;;;;;24.70;91.10;;;;;;5043825;28;19929;-56
2022/05/16 00:58:29;;;;;;;;;;;24.70;91.10;;;;;;5059721;28;19940;-57
2022/05/16 01:00:56;;;;;;;;;;;24.70;91.10;;;;;;5070785;28;19929;-58
2022/05/16 01:06:09;;;;;;;;;;;24.70;91.30;;;;;;5064045;28;19928;-57
2022/05/16 01:08:39;;;;;;;;;;;24.70;91.00;;;;;;5031427;28;19929;-56
2022/05/16 01:11:07;;;;;;;;;;;24.70;91.00;;;;;;5036176;28;19929;-56
2022/05/16 01:13:35;;;;;;;;;;;24.70;91.00;;;;;;5030887;28;20404;-56
2022/05/16 01:16:03;;;;;;;;;;;24.70;91.00;;;;;;5056207;28;19929;-56
2022/05/16 01:18:30;;;;;;;;;;;24.70;90.90;;;;;;5034799;28;19933;-57
2022/05/16 01:21:13;;;;;;;;;;;24.70;91.00;;;;;;5046533;28;19939;-57
2022/05/16 01:23:46;;;;;;;;;;;24.70;91.00;;;;;;5046373;28;19929;-56
2022/05/16 01:26:17;;;;;;;;;;;24.70;91.00;;;;;;5046483;28;20031;-57
2022/05/16 01:28:44;;;;;;;;;;;24.70;90.90;;;;;;5033200;28;19933;-57
2022/05/16 01:31:11;;;;;;;;;;;24.70;91.00;;;;;;5043325;28;19991;-57
2022/05/16 01:33:38;;;;;;;;;;;24.60;90.90;;;;;;5032613;28;20269;-57
2022/05/16 01:36:06;;;;;;;;;;;24.60;90.90;;;;;;5053388;28;19929;-58
2022/05/16 01:38:33;;;;;;;;;;;24.60;90.90;;;;;;5045859;28;20402;-57
2022/05/16 01:41:02;;;;;;;;;;;24.60;90.90;;;;;;5039272;28;19933;-58
2022/05/16 01:43:34;;;;;;;;;;;24.60;90.90;;;;;;5053002;28;19936;-56
2022/05/16 01:46:01;;;;;;;;;;;24.60;90.90;;;;;;5048619;28;19932;-56
2022/05/16 01:48:30;;;;;;;;;;;24.60;90.90;;;;;;5041842;28;19948;-58
2022/05/16 01:51:03;;;;;;;;;;;24.60;90.90;;;;;;5038609;28;19929;-57
2022/05/16 01:53:31;;;;;;;;;;;24.60;90.90;;;;;;5044998;28;19932;-56
2022/05/16 01:55:58;;;;;;;;;;;24.60;91.00;;;;;;5047691;28;19979;-58
2022/05/16 01:58:25;;;;;;;;;;;24.60;91.00;;;;;;5044411;28;19928;-57
2022/05/16 02:00:52;;;;;;;;;;;24.60;91.10;;;;;;5034650;28;19933;-57
2022/05/16 02:03:20;;;;;;;;;;;24.60;91.00;;;;;;5047973;28;20356;-54
2022/05/16 02:05:47;;;;;;;;;;;24.60;91.00;;;;;;5033428;28;19929;-53
2022/05/16 02:08:15;;;;;;;;;;;24.60;91.00;;;;;;5039139;28;19925;-54
2022/05/16 02:10:43;;;;;;;;;;;24.60;91.00;;;;;;5045152;28;19929;-55
2022/05/16 02:13:10;;;;;;;;;;;24.60;91.00;;;;;;5028934;28;20054;-54
2022/05/16 02:15:38;;;;;;;;;;;24.60;91.00;;;;;;5049810;28;19929;-56
2022/05/16 02:18:07;;;;;;;;;;;24.60;90.90;;;;;;5036389;28;19929;-55
2022/05/16 02:20:34;;;;;;;;;;;24.60;90.90;;;;;;5047278;28;19925;-58
2022/05/16 02:25:49;;;;;;;;;;;24.60;90.90;;;;;;5038409;28;19929;-56
2022/05/16 02:28:17;;;;;;;;;;;24.60;90.90;;;;;;5028567;28;19932;-55
2022/05/16 02:30:51;;;;;;;;;;;24.60;90.90;;;;;;5057214;28;19939;-56
2022/05/16 02:33:19;;;;;;;;;;;24.50;90.90;;;;;;5039478;28;20463;-57
2022/05/16 02:35:47;;;;;;;;;;;24.50;90.80;;;;;;5038841;28;19937;-57
2022/05/16 02:38:15;;;;;;;;;;;24.60;90.90;;;;;;5029089;28;19929;-55
2022/05/16 02:40:42;;;;;;;;;;;24.60;90.80;;;;;;5041156;28;19935;-53
2022/05/16 02:43:09;;;;;;;;;;;24.50;90.80;;;;;;5020486;28;19947;-55
2022/05/16 02:45:37;;;;;;;;;;;24.50;90.80;;;;;;5043531;28;19928;-54
2022/05/16 02:48:04;;;;;;;;;;;24.50;90.80;;;;;;5038469;28;19928;-57
2022/05/16 02:50:32;;;;;;;;;;;24.50;90.80;;;;;;5048334;28;19935;-58
2022/05/16 02:52:59;;;;;;;;;;;24.50;90.90;;;;;;5031688;28;19929;-56
2022/05/16 02:55:26;;;;;;;;;;;24.50;90.90;;;;;;5042840;28;19928;-57
2022/05/16 02:57:53;;;;;;;;;;;24.50;90.90;;;;;;5047496;28;19929;-57
2022/05/16 03:00:21;;;;;;;;;;;24.50;90.90;;;;;;5041646;28;19932;-57
2022/05/16 03:02:49;;;;;;;;;;;24.50;90.90;;;;;;5046485;28;19929;-55
2022/05/16 03:05:17;;;;;;;;;;;24.50;90.90;;;;;;5048158;28;20328;-52
2022/05/16 03:07:45;;;;;;;;;;;24.50;90.90;;;;;;5028140;28;19932;-57
2022/05/16 03:10:15;;;;;;;;;;;24.50;91.00;;;;;;5045873;28;20391;-54
2022/05/16 03:12:43;;;;;;;;;;;24.50;91.00;;;;;;5040583;28;19936;-57
2022/05/16 03:15:11;;;;;;;;;;;24.50;91.10;;;;;;5035996;28;19929;-56
2022/05/16 03:17:38;;;;;;;;;;;24.50;91.10;;;;;;5039464;28;19936;-57
2022/05/16 03:20:10;;;;;;;;;;;24.50;91.10;;;;;;5034873;28;19941;-57
2022/05/16 03:22:37;;;;;;;;;;;24.50;91.10;;;;;;5042760;28;19925;-57
2022/05/16 03:25:04;;;;;;;;;;;24.50;91.30;;;;;;5033005;28;19941;-57
2022/05/16 03:27:32;;;;;;;;;;;24.50;91.20;;;;;;5011119;28;19932;-54
2022/05/16 03:29:59;;;;;;;;;;;24.50;91.10;;;;;;5035457;28;19936;-55
2022/05/16 03:32:26;;;;;;;;;;;24.50;91.10;;;;;;5046332;28;19925;-56
2022/05/16 03:34:54;;;;;;;;;;;24.40;91.00;;;;;;5036372;28;19933;-63
2022/05/16 03:37:22;;;;;;;;;;;24.40;91.00;;;;;;5030950;28;19933;-55
2022/05/16 03:42:35;;;;;;;;;;;24.40;90.90;;;;;;5045135;28;19928;-56
2022/05/16 03:45:02;;;;;;;;;;;24.40;91.00;;;;;;5028826;28;19933;-57
2022/05/16 03:47:30;;;;;;;;;;;24.40;90.90;;;;;;5049549;28;19925;-56
2022/05/16 03:49:57;;;;;;;;;;;24.40;90.90;;;;;;5042415;28;19928;-54
2022/05/16 03:52:24;;;;;;;;;;;24.40;90.90;;;;;;5034365;28;20321;-56
2022/05/16 03:54:51;;;;;;;;;;;24.40;90.90;;;;;;5038771;28;19972;-58
2022/05/16 03:57:18;;;;;;;;;;;24.40;91.10;;;;;;5050384;28;20280;-55
2022/05/16 03:59:47;;;;;;;;;;;24.40;91.00;;;;;;5034282;28;19935;-60
2022/05/16 04:02:14;;;;;;;;;;;24.40;91.20;;;;;;5030888;28;20316;-60
2022/05/16 04:04:43;;;;;;;;;;;24.50;91.10;;;;;;5048225;28;19928;-61
2022/05/16 04:07:10;;;;;;;;;;;24.50;91.00;;;;;;5040855;28;19933;-60
2022/05/16 04:09:37;;;;;;;;;;;24.50;91.00;;;;;;5044754;28;19929;-58
2022/05/16 04:12:05;;;;;;;;;;;24.50;90.90;;;;;;5045230;28;19925;-63
2022/05/16 04:14:32;;;;;;;;;;;24.50;91.00;;;;;;5048331;28;19933;-61
2022/05/16 04:16:59;;;;;;;;;;;24.50;90.80;;;;;;5047625;28;19928;-61
2022/05/16 04:19:26;;;;;;;;;;;24.50;90.60;;;;;;5046326;28;19932;-60
2022/05/16 04:21:54;;;;;;;;;;;24.50;90.70;;;;;;5046835;28;19929;-61
2022/05/16 04:24:21;;;;;;;;;;;24.40;90.60;;;;;;5045718;28;19928;-62
2022/05/16 04:26:48;;;;;;;;;;;24.40;90.50;;;;;;5041718;28;19929;-61
2022/05/16 04:29:15;;;;;;;;;;;24.40;90.70;;;;;;5059884;28;19936;-61
2022/05/16 04:31:42;;;;;;;;;;;24.40;90.80;;;;;;5043311;28;19939;-57
2022/05/16 04:34:09;;;;;;;;;;;24.40;92.30;;;;;;5043202;28;19932;-61
2022/05/16 04:36:37;;;;;;;;;;;24.40;92.20;;;;;;5045483;28;20400;-59
2022/05/16 04:39:04;;;;;;;;;;;24.50;91.70;;;;;;5055232;28;20040;-60
2022/05/16 04:44:17;;;;;;;;;;;24.40;92.20;;;;;;5037707;28;19955;-58
2022/05/16 04:46:44;;;;;;;;;;;24.40;92.20;;;;;;5043957;28;19971;-57
2022/05/16 04:49:12;;;;;;;;;;;24.50;92.70;;;;;;5052949;28;19932;-56
2022/05/16 04:51:39;;;;;;;;;;;24.50;92.30;;;;;;5039699;28;19936;-56
2022/05/16 04:54:06;;;;;;;;;;;24.40;92.00;;;;;;5036939;28;20294;-56
2022/05/16 04:56:34;;;;;;;;;;;24.40;91.30;;;;;;5046752;28;20025;-58
2022/05/16 04:59:02;;;;;;;;;;;24.30;88.40;;;;;;5053991;28;19936;-56
2022/05/16 05:01:29;;;;;;;;;;;24.20;87.90;;;;;;5045394;28;20007;-58
2022/05/16 05:03:56;;;;;;;;;;;24.20;85.40;;;;;;5019682;28;19940;-57
2022/05/16 05:06:24;;;;;;;;;;;24.20;87.90;;;;;;5047941;28;19959;-58
2022/05/16 05:08:51;;;;;;;;;;;24.20;86.40;;;;;;5049054;28;19929;-59
2022/05/16 05:15:19;;;;;;;;;;;24.20;86.20;;;;;;5038220;28;19920;-58
2022/05/16 05:17:47;;;;;;;;;;;24.20;84.80;;;;;;5032083;28;19928;-56
2022/05/16 05:20:15;;;;;;;;;;;24.30;84.10;;;;;;5051167;28;19933;-58
2022/05/16 05:22:43;;;;;;;;;;;24.20;83.70;;;;;;5043864;28;19925;-58
2022/05/16 05:25:11;;;;;;;;;;;24.20;83.30;;;;;;5054581;28;19962;-56
2022/05/16 05:27:39;;;;;;;;;;;24.20;83.30;;;;;;5043296;28;19929;-57
2022/05/16 05:30:07;;;;;;;;;;;24.10;83.40;;;;;;5054597;28;20002;-58
2022/05/16 05:32:35;;;;;;;;;;;24.10;82.80;;;;;;5036210;28;19944;-58
2022/05/16 05:35:03;;;;;;;;;;;24.00;83.20;;;;;;5042019;28;20316;-56
2022/05/16 05:37:31;;;;;;;;;;;24.00;83.00;;;;;;5025155;28;19932;-56
2022/05/16 05:40:00;;;;;;;;;;;24.00;83.20;;;;;;5053744;28;19928;-58
2022/05/16 05:42:28;;;;;;;;;;;24.00;83.20;;;;;;5060937;28;19935;-58
2022/05/16 05:44:55;;;;;;;;;;;24.00;83.40;;;;;;5051952;28;20355;-58
2022/05/16 05:47:22;;;;;;;;;;;24.10;83.50;;;;;;5042310;28;19936;-58
2022/05/16 05:49:50;;;;;;;;;;;24.10;84.10;;;;;;5059469;28;19929;-59
2022/05/16 05:52:17;;;;;;;;;;;24.10;83.70;;;;;;5028157;28;19933;-59
2022/05/16 05:54:45;;;;;;;;;;;24.10;84.40;;;;;;5051314;28;20300;-58
2022/05/16 05:57:13;;;;;;;;;;;24.10;84.80;;;;;;5041484;28;20301;-57
2022/05/16 05:59:41;;;;;;;;;;;24.10;85.10;;;;;;5044044;28;20420;-57
2022/05/16 06:02:09;;;;;;;;;;;24.10;85.50;;;;;;5049548;28;19929;-57
2022/05/16 06:04:36;;;;;;;;;;;24.20;86.00;;;;;;5046876;28;19940;-57
2022/05/16 06:07:04;;;;;;;;;;;24.20;86.20;;;;;;5041258;28;19983;-57
2022/05/16 06:09:31;;;;;;;;;;;24.20;86.70;;;;;;5049726;28;20718;-55
2022/05/16 06:11:59;;;;;;;;;;;24.20;87.00;;;;;;5041923;28;19932;-57
2022/05/16 06:14:26;;;;;;;;;;;24.20;87.10;;;;;;5042928;28;20400;-57
2022/05/16 06:16:54;;;;;;;;;;;24.30;87.50;;;;;;5030476;28;20028;-56
2022/05/16 06:19:21;;;;;;;;;;;24.30;87.90;;;;;;5039770;28;19935;-57
2022/05/16 06:21:49;;;;;;;;;;;24.30;88.10;;;;;;5059583;28;20405;-57
2022/05/16 06:27:03;;;;;;;;;;;24.30;88.40;;;;;;5052373;28;19928;-56
2022/05/16 06:29:30;;;;;;;;;;;24.30;88.60;;;;;;5042987;28;20556;-51
2022/05/16 06:31:57;;;;;;;;;;;24.30;88.90;;;;;;5054731;28;19932;-56
2022/05/16 06:34:24;;;;;;;;;;;24.30;89.00;;;;;;5043622;28;19932;-57
2022/05/16 06:36:51;;;;;;;;;;;24.30;89.30;;;;;;5045166;28;19944;-58
2022/05/16 06:39:18;;;;;;;;;;;24.30;89.60;;;;;;5047876;28;19929;-58
2022/05/16 06:41:46;;;;;;;;;;;24.40;89.80;;;;;;5056589;28;19935;-56
2022/05/16 06:44:14;;;;;;;;;;;24.30;90.00;;;;;;5036645;28;19933;-52
2022/05/16 06:46:44;;;;;;;;;;;24.40;90.10;;;;;;5043161;28;20305;-58
2022/05/16 06:49:11;;;;;;;;;;;24.40;90.10;;;;;;5046534;28;19924;-54
2022/05/16 06:51:39;;;;;;;;;;;24.30;90.20;;;;;;5044097;28;20330;-57
2022/05/16 06:54:06;;;;;;;;;;;24.30;90.20;;;;;;5044509;28;19951;-56
2022/05/16 06:56:33;;;;;;;;;;;24.30;90.40;;;;;;5047051;28;20281;-57
2022/05/16 06:59:00;;;;;;;;;;;24.40;90.50;;;;;;5051140;28;19928;-57
2022/05/16 07:01:27;;;;;;;;;;;24.40;90.60;;;;;;5050706;28;19924;-58
2022/05/16 07:03:55;;;;;;;;;;;24.40;90.60;;;;;;5042360;28;19939;-58
2022/05/16 07:06:22;;;;;;;;;;;24.40;90.70;;;;;;5030279;28;19932;-64
2022/05/16 07:08:49;;;;;;;;;;;24.40;90.80;;;;;;5023635;28;19948;-58
2022/05/16 07:11:16;;;;;;;;;;;24.40;90.80;;;;;;5045146;28;19936;-60
2022/05/16 07:13:44;;;;;;;;;;;24.50;91.00;;;;;;5035172;28;19932;-58
2022/05/16 07:16:11;;;;;;;;;;;24.50;91.00;;;;;;5044256;28;19929;-59
2022/05/16 07:18:38;;;;;;;;;;;24.50;91.10;;;;;;5046127;28;20718;-60
2022/05/16 07:21:06;;;;;;;;;;;24.50;91.20;;;;;;5031321;28;20299;-60
2022/05/16 07:23:34;;;;;;;;;;;24.50;91.20;;;;;;5055428;28;19939;-64
2022/05/16 07:28:47;;;;;;;;;;;24.50;91.30;;;;;;5046996;28;19939;-62
2022/05/16 07:31:14;;;;;;;;;;;24.50;91.20;;;;;;5034330;28;19933;-64
2022/05/16 07:33:41;;;;;;;;;;;24.50;91.30;;;;;;5047304;28;19924;-64
2022/05/16 07:36:09;;;;;;;;;;;24.50;91.20;;;;;;5030178;28;19936;-59
2022/05/16 07:38:36;;;;;;;;;;;24.50;91.30;;;;;;5045128;28;19928;-60
2022/05/16 07:41:03;;;;;;;;;;;24.50;91.50;;;;;;5035904;28;19932;-61
2022/05/16 07:43:30;;;;;;;;;;;24.60;91.50;;;;;;5047689;28;19929;-59
2022/05/16 07:45:57;;;;;;;;;;;24.60;91.60;;;;;;5051179;28;19929;-60
2022/05/16 07:48:25;;;;;;;;;;;24.60;91.60;;;;;;5049473;28;19940;-59
2022/05/16 07:50:52;;;;;;;;;;;24.60;91.50;;;;;;5031762;28;19925;-60
2022/05/16 07:53:19;;;;;;;;;;;24.60;91.50;;;;;;5042500;28;19936;-60
2022/05/16 07:55:50;;;;;;;;;;;24.50;91.70;;;;;;5025532;28;19929;-58
2022/05/16 07:58:20;;;;;;;;;;;24.60;91.80;;;;;;5039748;28;20285;-60
2022/05/16 08:00:53;;;;;;;;;;;24.50;91.60;;;;;;5045086;28;19933;-58
2022/05/16 08:03:21;;;;;;;;;;;24.50;91.80;;;;;;5042847;28;19929;-62
2022/05/16 08:05:49;;;;;;;;;;;24.50;91.90;;;;;;5048929;28;19929;-60
2022/05/16 08:11:02;;;;;;;;;;;24.60;91.90;;;;;;5041416;28;19943;-61
2022/05/16 08:13:30;;;;;;;;;;;24.60;91.80;;;;;;5047900;28;19925;-59
2022/05/16 08:15:57;;;;;;;;;;;24.50;91.90;;;;;;5058870;28;19924;-59
2022/05/16 08:18:24;;;;;;;;;;;24.50;92.00;;;;;;5046084;28;19925;-60
2022/05/16 08:20:52;;;;;;;;;;;24.50;92.10;;;;;;5044034;28;19933;-63
2022/05/16 08:23:23;;;;;;;;;;;24.60;92.40;;;;;;5042649;28;19929;-56
2022/05/16 08:25:51;;;;;;;;;;;24.60;92.20;;;;;;5047898;28;19924;-61
2022/05/16 08:28:18;;;;;;;;;;;24.60;92.30;;;;;;5056171;28;19924;-61
2022/05/16 08:30:46;;;;;;;;;;;24.60;92.40;;;;;;5054103;28;19933;-61
2022/05/16 08:33:13;;;;;;;;;;;24.60;91.70;;;;;;5041983;28;19925;-60
2022/05/16 08:35:40;;;;;;;;;;;24.40;90.60;;;;;;5051378;28;20278;-57
2022/05/16 08:40:59;;;;;;;;;;;24.20;90.10;;;;;;5037391;28;19936;-57
2022/05/16 08:43:38;;;;;;;;;;;24.20;89.90;;;;;;5036786;28;20312;-56
2022/05/16 08:46:14;;;;;;;;;;;24.20;89.40;;;;;;5041231;28;19956;-52
2022/05/16 08:48:45;;;;;;;;;;;24.10;88.10;;;;;;5046878;28;19925;-55
2022/05/16 08:51:14;;;;;;;;;;;24.20;88.10;;;;;;5053862;28;19928;-55
2022/05/16 08:53:41;;;;;;;;;;;24.20;88.50;;;;;;5048795;28;19931;-57
2022/05/16 08:56:09;;;;;;;;;;;24.20;88.10;;;;;;5037000;28;19928;-58
2022/05/16 08:58:43;;;;;;;;;;;24.30;87.60;;;;;;5060632;28;19924;-56
2022/05/16 09:01:18;;;;;;;;;;;24.20;88.00;;;;;;5058765;28;19940;-56
2022/05/16 09:03:48;;;;;;;;;;;24.10;88.10;;;;;;5041999;28;20315;-56
2022/05/16 09:06:17;;;;;;;;;;;24.10;88.30;;;;;;5034270;28;19925;-57
2022/05/16 09:08:49;;;;;;;;;;;24.10;88.60;;;;;;5030062;28;19929;-54
2022/05/16 09:11:37;;;;;;;;;;;24.20;88.20;;;;;;5038704;28;19929;-60
2022/05/16 09:14:09;;;;;;;;;;;24.10;88.40;;;;;;5008538;28;19929;-56
2022/05/16 09:17:00;;;;;;;;;;;24.20;88.30;;;;;;5049466;28;19940;-58
2022/05/16 09:19:39;;;;;;;;;;;24.20;88.40;;;;;;5031234;28;19932;-59
2022/05/16 09:22:19;;;;;;;;;;;24.10;89.00;;;;;;5057826;28;19932;-58
2022/05/16 09:24:49;;;;;;;;;;;24.20;89.80;;;;;;5047966;28;20027;-58
2022/05/16 09:28:34;;;;;;;;;;;24.20;90.20;;;;;;5046847;28;19955;-55
2022/05/16 09:30:07;;;;;;;;;;;24.30;90.20;;;;;;5047330;28;20415;-58
2022/05/16 09:32:37;;;;;;;;;;;24.30;89.80;;;;;;5058390;28;19935;-57
2022/05/16 09:35:12;;;;;;;;;;;24.30;89.70;;;;;;5044231;28;19935;-59
2022/05/16 09:37:40;;;;;;;;;;;24.40;89.90;;;;;;5042307;28;20389;-61
2022/05/16 09:40:07;;;;;;;;;;;24.40;90.00;;;;;;5047811;28;19960;-59
2022/05/16 09:42:35;;;;;;;;;;;24.50;90.00;;;;;;5062526;28;19935;-62
2022/05/16 09:45:04;;;;;;;;;;;24.50;90.20;;;;;;5047288;28;20435;-56
2022/05/16 09:47:32;;;;;;;;;;;24.60;90.30;;;;;;5052585;28;19929;-56
2022/05/16 09:50:03;;;;;;;;;;;24.70;90.60;;;;;;5051899;28;19931;-58
2022/05/16 09:52:31;;;;;;;;;;;24.70;90.80;;;;;;5048684;28;19929;-58
2022/05/16 09:55:08;;;;;;;;;;;24.80;91.20;;;;;;5047909;28;19936;-57
2022/05/16 09:57:40;;;;;;;;;;;24.80;91.40;;;;;;5042805;28;19960;-57
2022/05/16 10:00:16;;;;;;;;;;;24.80;91.70;;;;;;5053653;28;20375;-57
2022/05/16 10:02:52;;;;;;;;;;;24.80;91.90;;;;;;5040311;28;20285;-62
2022/05/16 10:05:20;;;;;;;;;;;24.80;92.10;;;;;;5045238;28;19929;-63
2022/05/16 10:07:49;;;;;;;;;;;24.90;92.40;;;;;;5048530;28;19928;-61
2022/05/16 10:10:21;;;;;;;;;;;24.90;92.70;;;;;;5052657;28;19928;-63
2022/05/16 10:12:51;;;;;;;;;;;24.90;93.10;;;;;;5035812;28;19928;-62
2022/05/16 10:15:19;;;;;;;;;;;24.90;93.80;;;;;;5033820;28;19928;-59
2022/05/16 10:17:47;;;;;;;;;;;24.90;94.30;;;;;;5053011;28;19933;-60
2022/05/16 10:20:17;;;;;;;;;;;24.90;95.10;;;;;;5040674;28;19993;-60
2022/05/16 10:22:46;;;;;;;;;;;24.90;95.60;;;;;;5043388;28;20465;-62
2022/05/16 10:25:43;;;;;;;;;;;24.90;96.10;;;;;;5014098;28;19924;-61
2022/05/16 10:28:13;;;;;;;;;;;24.90;96.60;;;;;;5048234;28;19951;-58
2022/05/16 10:33:29;;;;;;;;;;;24.80;96.20;;;;;;5044339;28;19926;-61
2022/05/16 10:36:05;;;;;;;;;;;24.80;95.10;;;;;;5037815;28;19948;-58
2022/05/16 10:38:33;;;;;;;;;;;24.80;95.60;;;;;;5050397;28;19931;-56
2022/05/16 10:41:01;;;;;;;;;;;24.80;94.50;;;;;;5039360;28;20320;-57
2022/05/16 10:43:33;;;;;;;;;;;24.80;94.60;;;;;;5048808;28;20058;-54
2022/05/16 10:46:18;;;;;;;;;;;24.80;93.90;;;;;;5044850;28;19925;-58
2022/05/16 10:48:55;;;;;;;;;;;24.80;92.60;;;;;;5048022;28;19925;-58
2022/05/16 10:51:28;;;;;;;;;;;24.90;94.10;;;;;;5042734;28;19957;-58
2022/05/16 10:54:04;;;;;;;;;;;25.00;93.80;;;;;;5050537;28;19932;-60
2022/05/16 10:56:34;;;;;;;;;;;24.90;93.00;;;;;;5043016;28;19928;-55
2022/05/16 10:59:07;;;;;;;;;;;24.90;92.70;;;;;;5053896;28;19988;-57
2022/05/16 11:01:52;;;;;;;;;;;24.90;92.30;;;;;;5052994;28;19932;-58
2022/05/16 11:04:29;;;;;;;;;;;24.90;92.30;;;;;;5054594;28;19928;-57
2022/05/16 11:06:59;;;;;;;;;;;24.90;92.20;;;;;;5044841;28;19936;-56
2022/05/16 11:09:35;;;;;;;;;;;24.90;92.00;;;;;;5039050;28;19931;-56
2022/05/16 11:12:02;;;;;;;;;;;24.90;91.80;;;;;;5053743;28;19999;-58
2022/05/16 11:14:47;;;;;;;;;;;24.90;91.60;;;;;;5052477;28;20578;-57
2022/05/16 11:17:25;;;;;;;;;;;25.00;91.60;;;;;;5049590;28;19951;-57
2022/05/16 11:19:55;;;;;;;;;;;25.00;91.60;;;;;;5032182;28;19928;-58
2022/05/16 11:22:31;;;;;;;;;;;24.90;91.60;;;;;;5046571;28;20138;-57
2022/05/16 11:25:13;;;;;;;;;;;24.90;92.10;;;;;;5045415;28;19929;-58
2022/05/16 11:28:00;;;;;;;;;;;24.90;92.00;;;;;;5043677;28;19929;-54
2022/05/16 11:30:27;;;;;;;;;;;24.90;92.10;;;;;;5035006;28;20404;-57
2022/05/16 11:32:57;;;;;;;;;;;24.80;92.20;;;;;;5051934;28;19936;-58
2022/05/16 11:35:44;;;;;;;;;;;24.80;92.30;;;;;;5044113;28;19935;-56
2022/05/16 11:38:20;;;;;;;;;;;24.80;92.50;;;;;;5044724;28;20423;-55
2022/05/16 11:41:07;;;;;;;;;;;24.80;92.70;;;;;;5037496;28;19940;-57
2022/05/16 11:43:36;;;;;;;;;;;24.80;92.70;;;;;;5036980;28;19975;-56
2022/05/16 11:46:04;;;;;;;;;;;24.80;92.80;;;;;;5043921;28;19929;-58
2022/05/16 11:48:36;;;;;;;;;;;24.80;92.90;;;;;;5042954;28;20575;-53
2022/05/16 11:51:44;;;;;;;;;;;24.80;93.00;;;;;;5032435;28;19929;-57
2022/05/16 11:54:13;;;;;;;;;;;24.80;93.10;;;;;;5027464;28;19932;-56
2022/05/16 12:02:27;;;;;;;;;;;24.80;93.50;;;;;;5030497;28;20029;-54
2022/05/16 12:05:00;;;;;;;;;;;24.80;93.70;;;;;;5027839;28;20304;-56
2022/05/16 12:07:32;;;;;;;;;;;24.80;93.70;;;;;;5027428;28;20205;-55
2022/05/16 12:10:08;;;;;;;;;;;24.80;93.70;;;;;;5027600;28;19932;-58
2022/05/16 12:12:40;;;;;;;;;;;24.80;93.80;;;;;;5029477;28;19940;-59
2022/05/16 12:15:16;;;;;;;;;;;24.80;93.80;;;;;;5017516;28;19929;-58
2022/05/16 12:18:04;;;;;;;;;;;24.80;94.10;;;;;;5033957;28;19932;-60
2022/05/16 12:20:58;;;;;;;;;;;24.80;93.90;;;;;;5031788;28;20723;-56
2022/05/16 12:23:43;;;;;;;;;;;24.80;93.90;;;;;;5023384;28;19925;-58
2022/05/16 12:26:11;;;;;;;;;;;24.80;94.00;;;;;;5043476;28;20426;-58
2022/05/16 12:28:38;;;;;;;;;;;24.80;94.00;;;;;;5053343;28;19941;-57
2022/05/16 12:31:09;;;;;;;;;;;24.80;94.00;;;;;;5051626;28;19936;-57
2022/05/16 12:33:40;;;;;;;;;;;24.90;94.70;;;;;;5050393;28;20376;-55
2022/05/16 12:36:18;;;;;;;;;;;24.90;94.80;;;;;;5035275;28;19944;-55
2022/05/16 12:38:55;;;;;;;;;;;25.00;95.10;;;;;;5040497;28;20439;-58
2022/05/16 12:41:44;;;;;;;;;;;25.00;96.50;;;;;;5037209;28;20379;-56
2022/05/16 12:44:21;;;;;;;;;;;25.00;96.80;;;;;;5037953;28;19925;-56
2022/05/16 12:47:02;;;;;;;;;;;25.10;95.80;;;;;;5045737;28;19925;-55
2022/05/16 12:49:40;;;;;;;;;;;25.00;95.90;;;;;;5034676;28;20288;-56
2022/05/16 12:52:26;;;;;;;;;;;25.10;95.70;;;;;;5041917;28;19933;-57
2022/05/16 12:55:21;;;;;;;;;;;25.00;95.50;;;;;;5031114;28;20016;-55
2022/05/16 12:58:00;;;;;;;;;;;25.10;95.40;;;;;;5047192;28;19936;-52
2022/05/16 13:00:50;;;;;;;;;;;25.10;95.30;;;;;;5043962;28;19936;-55
2022/05/16 13:03:38;;;;;;;;;;;25.10;95.20;;;;;;5031237;28;19947;-57
2022/05/16 13:06:28;;;;;;;;;;;25.10;95.00;;;;;;5024761;28;19935;-61
2022/05/16 13:09:01;;;;;;;;;;;25.10;94.90;;;;;;5046330;28;19933;-58
2022/05/16 13:11:39;;;;;;;;;;;25.10;94.70;;;;;;5028620;28;19929;-54
2022/05/16 13:14:11;;;;;;;;;;;25.10;94.70;;;;;;5054285;28;19924;-55
2022/05/16 13:16:40;;;;;;;;;;;25.20;94.60;;;;;;5041168;28;19929;-57
2022/05/16 13:19:12;;;;;;;;;;;25.20;94.60;;;;;;5038168;28;21810;-53
2022/05/16 13:21:42;;;;;;;;;;;25.20;94.50;;;;;;5051662;28;19929;-55
2022/05/16 13:24:11;;;;;;;;;;;25.20;94.50;;;;;;5050798;28;20327;-55
2022/05/16 13:29:33;;;;;;;;;;;25.20;95.00;;;;;;5048633;28;19948;-55
2022/05/16 13:32:11;;;;;;;;;;;25.20;95.30;;;;;;5027098;28;19932;-59
2022/05/16 13:34:41;;;;;;;;;;;25.20;95.30;;;;;;5047069;28;19936;-58
2022/05/16 13:37:11;;;;;;;;;;;25.20;95.40;;;;;;5036011;28;20389;-56
2022/05/16 13:39:40;;;;;;;;;;;25.20;95.70;;;;;;5052379;28;20015;-57
2022/05/16 13:42:07;;;;;;;;;;;25.20;95.90;;;;;;5047136;28;20408;-57
2022/05/16 13:44:36;;;;;;;;;;;25.20;96.00;;;;;;5040479;28;19928;-53
2022/05/16 13:47:06;;;;;;;;;;;25.20;96.20;;;;;;5042701;28;19936;-51
2022/05/16 13:49:35;;;;;;;;;;;25.20;96.30;;;;;;5038586;28;20422;-59
2022/05/16 13:52:03;;;;;;;;;;;25.20;96.40;;;;;;5056188;28;19924;-58
2022/05/16 13:54:32;;;;;;;;;;;25.20;96.70;;;;;;5043536;28;19955;-55
2022/05/16 13:57:00;;;;;;;;;;;25.20;97.10;;;;;;5044705;28;20408;-57
2022/05/16 13:59:29;;;;;;;;;;;25.20;97.10;;;;;;5052102;28;19929;-58
2022/05/16 14:01:59;;;;;;;;;;;25.20;97.30;;;;;;5034961;28;20307;-58
2022/05/16 14:04:29;;;;;;;;;;;25.20;97.30;;;;;;5043088;28;19931;-57
2022/05/16 14:07:08;;;;;;;;;;;25.20;97.80;;;;;;5025803;28;20327;-57
2022/05/16 14:09:40;;;;;;;;;;;25.20;97.70;;;;;;5045489;28;19929;-58
2022/05/16 14:12:10;;;;;;;;;;;25.20;97.50;;;;;;5022482;28;19933;-56
2022/05/16 14:14:38;;;;;;;;;;;25.10;97.20;;;;;;5048699;28;20323;-57
2022/05/16 14:17:05;;;;;;;;;;;25.20;97.40;;;;;;5047935;28;20302;-56
2022/05/16 14:19:53;;;;;;;;;;;25.10;97.30;;;;;;5043108;28;20015;-58
2022/05/16 14:22:29;;;;;;;;;;;25.10;97.20;;;;;;5041217;28;20312;-55
2022/05/16 14:25:19;;;;;;;;;;;25.10;97.10;;;;;;5039423;28;20396;-58
2022/05/16 14:28:15;;;;;;;;;;;25.10;97.00;;;;;;5039134;28;20428;-59
2022/05/16 14:30:50;;;;;;;;;;;25.00;96.90;;;;;;5035438;28;20487;-60
2022/05/16 14:33:18;;;;;;;;;;;25.10;98.30;;;;;;5055883;28;19940;-57
2022/05/16 14:35:55;;;;;;;;;;;25.10;98.60;;;;;;5044689;28;19940;-57
2022/05/16 14:38:24;;;;;;;;;;;25.10;98.10;;;;;;5047060;28;19939;-56
2022/05/16 14:41:01;;;;;;;;;;;25.10;98.20;;;;;;5053589;28;19940;-55
2022/05/16 14:43:29;;;;;;;;;;;25.10;98.20;;;;;;5037566;28;19929;-58
2022/05/16 14:48:48;;;;;;;;;;;25.10;98.20;;;;;;5040785;28;19933;-58
2022/05/16 14:51:16;;;;;;;;;;;25.10;98.20;;;;;;5049080;28;19925;-58
2022/05/16 14:53:44;;;;;;;;;;;25.00;98.20;;;;;;5058424;28;19936;-59
2022/05/16 14:56:11;;;;;;;;;;;25.10;98.20;;;;;;5048363;28;19925;-58
2022/05/16 14:58:39;;;;;;;;;;;25.10;98.10;;;;;;5048374;28;20320;-59
2022/05/16 15:04:03;;;;;;;;;;;25.10;98.00;;;;;;5046831;28;19928;-57
2022/05/16 15:06:31;;;;;;;;;;;25.10;98.00;;;;;;5047860;28;20479;-58
2022/05/16 15:09:00;;;;;;;;;;;25.10;98.00;;;;;;5039990;28;20311;-59
2022/05/16 15:11:29;;;;;;;;;;;25.10;98.00;;;;;;5052044;28;20323;-59
2022/05/16 15:13:56;;;;;;;;;;;25.10;98.10;;;;;;5036749;28;19936;-57
2022/05/16 15:16:23;;;;;;;;;;;25.00;98.40;;;;;;5040203;28;20014;-58
2022/05/16 15:18:52;;;;;;;;;;;25.00;98.20;;;;;;5039103;28;19935;-59